Time;durP1;ratioP1;P1;durP2;ratioP2;P2;SDS_P1;SDS_P2;PMS_P1;PMS_P2;Temp;Humidity;BMP_temperature;BMP_pressure;BME280_temperature;BME280_humidity;BME280_pressure;Samples;Min_cycle;Max_cycle;Signal;HPM_P1;HPM_P2
2021/09/13 00:01:09;;;;;;;5.50;3.03;;;21.60;99.90;;;;;;4993762;28;20217;-67
2021/09/13 00:03:36;;;;;;;4.22;2.63;;;21.60;99.90;;;;;;4993059;28;20232;-67
2021/09/13 00:06:03;;;;;;;4.00;2.97;;;21.60;99.90;;;;;;4993820;28;20265;-67
2021/09/13 00:08:30;;;;;;;3.83;2.70;;;21.50;99.90;;;;;;4993401;28;20220;-66
2021/09/13 00:10:57;;;;;;;2.92;2.63;;;21.50;99.90;;;;;;4994099;28;20263;-68
2021/09/13 00:13:24;;;;;;;2.75;2.53;;;21.50;99.90;;;;;;4993469;28;20209;-67
2021/09/13 00:15:51;;;;;;;2.55;2.35;;;21.50;99.90;;;;;;4993651;28;20267;-67
2021/09/13 00:18:20;;;;;;;3.80;2.30;;;21.50;99.90;;;;;;4993813;28;20213;-67
2021/09/13 00:20:47;;;;;;;2.97;2.55;;;21.50;99.90;;;;;;4993634;28;20228;-67
2021/09/13 00:23:14;;;;;;;2.33;2.13;;;21.50;99.90;;;;;;4993845;28;20298;-67
2021/09/13 00:25:41;;;;;;;2.38;2.17;;;21.50;99.90;;;;;;4991606;28;20217;-67
2021/09/13 00:28:08;;;;;;;3.47;2.80;;;21.50;99.90;;;;;;4993232;28;20205;-67
2021/09/13 00:30:35;;;;;;;2.42;2.22;;;21.40;99.90;;;;;;4992783;28;20248;-66
2021/09/13 00:33:01;;;;;;;4.72;2.45;;;21.40;99.90;;;;;;4992892;28;20205;-66
2021/09/13 00:35:30;;;;;;;3.33;3.00;;;21.30;99.90;;;;;;4992787;28;20593;-66
2021/09/13 00:37:57;;;;;;;3.00;2.67;;;21.30;99.90;;;;;;4993449;28;20647;-66
2021/09/13 00:40:25;;;;;;;3.00;2.20;;;21.20;99.90;;;;;;4993201;28;20209;-68
2021/09/13 00:42:52;;;;;;;2.67;2.47;;;21.20;99.90;;;;;;4992738;28;20707;-67
2021/09/13 00:45:19;;;;;;;3.25;2.95;;;21.20;99.90;;;;;;4993198;28;20256;-67
2021/09/13 00:47:46;;;;;;;2.88;2.53;;;21.10;99.90;;;;;;4993527;28;20651;-67
2021/09/13 00:50:14;;;;;;;3.22;2.97;;;21.10;99.90;;;;;;4993419;28;20213;-66
2021/09/13 00:52:48;;;;;;;3.08;2.78;;;21.10;99.90;;;;;;4992535;28;20254;-67
2021/09/13 00:55:15;;;;;;;2.90;2.60;;;21.10;99.90;;;;;;4993020;28;20205;-67
2021/09/13 00:57:42;;;;;;;4.93;2.97;;;21.10;99.90;;;;;;4992423;28;20244;-67
2021/09/13 01:00:10;;;;;;;3.42;2.45;;;21.00;99.90;;;;;;4992614;28;20201;-66
2021/09/13 01:02:37;;;;;;;3.08;2.72;;;21.00;99.90;;;;;;4992383;28;20723;-67
2021/09/13 01:05:05;;;;;;;2.53;2.33;;;21.00;99.90;;;;;;4992510;28;20669;-67
2021/09/13 01:07:33;;;;;;;3.13;2.50;;;20.90;99.90;;;;;;4992552;28;20286;-68
2021/09/13 01:10:02;;;;;;;3.03;2.70;;;20.90;99.90;;;;;;4992743;28;20240;-68
2021/09/13 01:12:29;;;;;;;4.10;2.47;;;20.80;99.90;;;;;;4992448;28;20209;-67
2021/09/13 01:14:56;;;;;;;2.55;2.35;;;20.70;99.90;;;;;;4992082;28;20677;-67
2021/09/13 01:17:23;;;;;;;4.28;2.92;;;20.70;99.90;;;;;;4992325;28;20631;-67
2021/09/13 01:19:50;;;;;;;3.00;2.78;;;20.70;99.90;;;;;;4992562;28;20688;-68
2021/09/13 01:22:20;;;;;;;2.83;2.58;;;20.70;99.90;;;;;;4993007;28;20448;-68
2021/09/13 01:24:48;;;;;;;2.53;2.33;;;20.70;99.90;;;;;;4992861;28;20332;-67
2021/09/13 01:27:15;;;;;;;3.83;2.88;;;20.80;99.90;;;;;;4992613;28;20260;-67
2021/09/13 01:29:42;;;;;;;4.70;2.83;;;20.70;99.90;;;;;;4992083;28;20263;-67
2021/09/13 01:32:10;;;;;;;3.50;2.47;;;20.70;99.90;;;;;;4992327;28;20263;-67
2021/09/13 01:34:37;;;;;;;3.03;2.80;;;20.70;99.90;;;;;;4991937;28;20215;-67
2021/09/13 01:37:04;;;;;;;3.10;2.38;;;20.70;99.90;;;;;;4992006;28;20216;-67
2021/09/13 01:39:31;;;;;;;3.30;3.00;;;20.70;99.90;;;;;;4991913;28;20259;-67
2021/09/13 01:42:00;;;;;;;3.08;2.78;;;20.60;99.90;;;;;;4991941;28;20664;-67
2021/09/13 01:44:27;;;;;;;2.53;2.33;;;20.50;99.90;;;;;;4990990;28;20205;-67
2021/09/13 01:46:54;;;;;;;3.33;3.03;;;20.50;99.90;;;;;;4992314;28;20205;-67
2021/09/13 01:49:21;;;;;;;2.80;2.38;;;20.40;99.90;;;;;;4991632;28;20232;-67
2021/09/13 01:51:48;;;;;;;3.53;2.40;;;20.30;99.90;;;;;;4992222;28;20684;-68
2021/09/13 01:54:15;;;;;;;2.85;2.55;;;20.30;99.90;;;;;;4991671;28;20681;-67
2021/09/13 01:56:42;;;;;;;2.20;2.00;;;20.30;99.90;;;;;;4991879;28;20209;-68
2021/09/13 01:59:10;;;;;;;5.82;3.15;;;20.20;99.90;;;;;;4991683;28;20209;-66
2021/09/13 02:01:37;;;;;;;4.30;2.92;;;20.20;99.90;;;;;;4991686;28;20212;-66
2021/09/13 02:04:04;;;;;;;2.72;2.17;;;20.20;99.90;;;;;;4992033;28;20232;-66
2021/09/13 02:06:32;;;;;;;3.97;3.03;;;20.20;99.90;;;;;;4977918;28;20213;-67
2021/09/13 02:08:59;;;;;;;3.42;2.65;;;20.20;99.90;;;;;;4991537;28;20279;-67
2021/09/13 02:11:26;;;;;;;3.20;2.40;;;20.20;99.90;;;;;;4991005;28;20209;-67
2021/09/13 02:13:53;;;;;;;3.63;3.17;;;20.20;99.90;;;;;;4991704;28;20204;-67
2021/09/13 02:16:21;;;;;;;3.80;3.10;;;20.20;99.90;;;;;;4991188;28;20917;-67
2021/09/13 02:18:48;;;;;;;2.40;2.20;;;20.10;99.90;;;;;;4992013;28;20260;-68
2021/09/13 02:21:15;;;;;;;2.97;2.70;;;20.10;99.90;;;;;;4991366;28;20726;-67
2021/09/13 02:23:42;;;;;;;4.88;3.50;;;20.10;99.90;;;;;;4991358;28;20236;-68
2021/09/13 02:26:09;;;;;;;4.70;3.20;;;20.00;99.90;;;;;;4991707;28;20221;-68
2021/09/13 02:28:38;;;;;;;4.53;3.05;;;20.00;99.90;;;;;;4990633;28;20263;-67
2021/09/13 02:31:05;;;;;;;4.40;2.85;;;20.00;99.90;;;;;;4991614;28;20204;-67
2021/09/13 02:33:33;;;;;;;4.65;3.13;;;20.00;99.90;;;;;;4990691;28;20205;-68
2021/09/13 02:36:00;;;;;;;3.67;3.38;;;20.00;99.90;;;;;;4991360;28;20205;-68
2021/09/13 02:38:27;;;;;;;5.57;3.13;;;20.00;99.90;;;;;;4991164;28;20209;-68
2021/09/13 02:40:54;;;;;;;3.53;3.22;;;20.00;99.90;;;;;;4990872;28;20212;-68
2021/09/13 02:43:21;;;;;;;3.72;2.97;;;20.00;99.90;;;;;;4991203;28;20255;-68
2021/09/13 02:45:48;;;;;;;4.45;2.78;;;19.90;99.90;;;;;;4991417;28;20197;-67
2021/09/13 02:48:15;;;;;;;3.58;3.28;;;19.90;99.90;;;;;;4991638;28;20220;-67
2021/09/13 02:50:43;;;;;;;4.28;2.78;;;19.80;99.90;;;;;;4990803;28;20267;-67
2021/09/13 02:53:10;;;;;;;3.28;2.88;;;19.90;99.90;;;;;;4991163;28;20266;-67
2021/09/13 02:55:37;;;;;;;4.63;3.20;;;19.90;99.90;;;;;;4992539;28;20213;-67
2021/09/13 02:58:04;;;;;;;3.58;3.30;;;19.70;99.90;;;;;;4995139;28;20743;-67
2021/09/13 03:00:31;;;;;;;3.85;3.58;;;19.50;99.90;;;;;;4994890;28;20286;-68
2021/09/13 03:02:58;;;;;;;4.18;3.75;;;19.50;99.90;;;;;;4994963;28;20224;-68
2021/09/13 03:05:25;;;;;;;3.72;3.42;;;19.40;99.90;;;;;;4994638;28;20735;-68
2021/09/13 03:07:54;;;;;;;3.63;3.33;;;19.40;99.90;;;;;;4994921;28;20212;-68
2021/09/13 03:10:21;;;;;;;5.97;3.67;;;19.40;99.90;;;;;;4994364;28;20739;-68
2021/09/13 03:12:47;;;;;;;3.97;3.67;;;19.30;99.90;;;;;;4995242;28;20217;-68
2021/09/13 03:15:15;;;;;;;3.33;3.00;;;19.30;99.90;;;;;;4995068;28;20213;-68
2021/09/13 03:17:43;;;;;;;3.28;2.97;;;19.50;99.90;;;;;;4994371;28;20688;-68
2021/09/13 03:20:11;;;;;;;3.72;3.42;;;19.60;99.90;;;;;;4981701;28;20209;-68
2021/09/13 03:22:38;;;;;;;3.75;3.45;;;19.60;99.90;;;;;;4994313;28;20778;-68
2021/09/13 03:25:08;;;;;;;5.07;3.38;;;19.60;99.90;;;;;;4994285;28;20630;-68
2021/09/13 03:27:35;;;;;;;4.95;2.95;;;19.50;99.90;;;;;;4994328;28;20344;-68
2021/09/13 03:30:02;;;;;;;3.80;3.40;;;19.50;99.90;;;;;;4994256;28;20209;-68
2021/09/13 03:32:29;;;;;;;3.85;3.55;;;19.50;99.90;;;;;;4994273;28;20688;-68
2021/09/13 03:34:56;;;;;;;3.67;3.38;;;19.50;99.90;;;;;;4994660;28;20212;-68
2021/09/13 03:37:23;;;;;;;3.70;3.40;;;19.50;99.90;;;;;;4994108;28;20200;-68
2021/09/13 03:39:50;;;;;;;3.88;3.47;;;19.50;99.90;;;;;;4994242;28;20631;-68
2021/09/13 03:42:18;;;;;;;3.28;2.97;;;19.50;99.90;;;;;;4994379;28;20236;-67
2021/09/13 03:44:45;;;;;;;3.45;3.15;;;19.50;99.90;;;;;;4994357;28;20240;-67
2021/09/13 03:47:12;;;;;;;3.45;2.90;;;19.40;99.90;;;;;;4994169;28;20556;-67
2021/09/13 03:49:39;;;;;;;4.00;3.30;;;19.40;99.90;;;;;;4994097;28;20205;-67
2021/09/13 03:52:08;;;;;;;3.20;2.85;;;19.40;99.90;;;;;;4994440;28;20216;-67
2021/09/13 03:54:35;;;;;;;3.60;2.70;;;19.40;99.90;;;;;;4993576;28;20220;-66
2021/09/13 03:57:03;;;;;;;4.00;3.60;;;19.40;99.90;;;;;;4994033;28;20264;-66
2021/09/13 03:59:32;;;;;;;5.20;3.83;;;19.30;99.90;;;;;;4993352;28;20209;-66
2021/09/13 04:01:59;;;;;;;4.03;3.42;;;19.30;99.90;;;;;;4994310;28;20212;-67
2021/09/13 04:04:28;;;;;;;3.60;3.30;;;19.10;99.90;;;;;;4993555;28;22321;-66
2021/09/13 04:06:57;;;;;;;5.68;3.65;;;19.10;99.90;;;;;;4993001;28;20209;-68
2021/09/13 04:09:47;;;;;;;3.33;3.03;;;19.10;99.90;;;;;;4993344;28;20275;-68
2021/09/13 04:12:14;;;;;;;3.03;2.72;;;19.20;99.90;;;;;;4993841;28;20204;-68
2021/09/13 04:14:42;;;;;;;3.75;3.45;;;19.20;99.90;;;;;;4993192;28;20586;-68
2021/09/13 04:17:09;;;;;;;3.42;3.03;;;19.20;99.90;;;;;;4994018;28;20259;-68
2021/09/13 04:19:36;;;;;;;3.35;2.85;;;19.20;99.90;;;;;;4993279;28;20618;-68
2021/09/13 04:22:04;;;;;;;3.55;3.25;;;19.20;99.90;;;;;;4993491;28;20742;-68
2021/09/13 04:24:31;;;;;;;4.32;3.65;;;19.10;99.90;;;;;;4993054;28;20292;-68
2021/09/13 04:26:58;;;;;;;4.93;3.05;;;18.90;99.90;;;;;;4993882;28;20255;-67
2021/09/13 04:29:25;;;;;;;4.93;3.35;;;18.90;99.90;;;;;;4993371;28;20208;-67
2021/09/13 04:31:53;;;;;;;3.33;3.03;;;18.90;99.90;;;;;;4992184;28;20257;-67
2021/09/13 04:34:20;;;;;;;7.10;3.28;;;19.00;99.90;;;;;;4992722;28;20287;-67
2021/09/13 04:36:47;;;;;;;5.15;3.72;;;19.10;99.90;;;;;;4993188;28;20260;-68
2021/09/13 04:39:14;;;;;;;3.35;3.05;;;19.10;99.90;;;;;;4992768;28;20205;-68
2021/09/13 04:41:41;;;;;;;3.97;3.67;;;19.10;99.90;;;;;;4992773;28;20217;-68
2021/09/13 04:44:08;;;;;;;6.22;2.97;;;19.10;99.90;;;;;;4989906;28;20980;-68
2021/09/13 04:46:35;;;;;;;4.20;3.05;;;19.10;99.90;;;;;;4980469;28;20237;-68
2021/09/13 04:49:03;;;;;;;3.42;3.13;;;19.10;99.90;;;;;;4989472;28;20209;-69
2021/09/13 04:51:33;;;;;;;3.42;3.10;;;18.90;99.90;;;;;;4987678;28;20267;-68
2021/09/13 04:54:01;;;;;;;3.35;3.05;;;19.00;99.90;;;;;;4992589;28;20299;-68
2021/09/13 04:56:28;;;;;;;4.68;3.25;;;18.90;99.90;;;;;;4992463;28;20240;-68
2021/09/13 04:58:55;;;;;;;4.05;3.28;;;19.00;99.90;;;;;;4992859;28;20263;-68
2021/09/13 05:01:22;;;;;;;3.92;3.58;;;18.90;99.90;;;;;;4992598;28;20259;-69
2021/09/13 05:03:49;;;;;;;3.72;3.42;;;19.00;99.90;;;;;;4985131;28;20229;-69
2021/09/13 05:06:18;;;;;;;4.65;4.15;;;19.00;99.90;;;;;;4991210;28;20213;-68
2021/09/13 05:08:46;;;;;;;4.95;4.18;;;19.00;99.90;;;;;;4991247;28;20705;-68
2021/09/13 05:11:13;;;;;;;3.65;3.35;;;19.00;99.90;;;;;;4984563;28;20209;-68
2021/09/13 05:13:40;;;;;;;5.70;3.78;;;19.00;99.90;;;;;;4992027;28;20209;-68
2021/09/13 05:16:07;;;;;;;4.55;4.15;;;18.90;99.90;;;;;;4990916;28;20259;-68
2021/09/13 05:18:34;;;;;;;4.00;3.60;;;19.00;99.90;;;;;;4992058;28;20216;-68
2021/09/13 05:21:00;;;;;;;5.55;3.95;;;19.00;99.90;;;;;;4992086;28;20267;-68
2021/09/13 05:23:29;;;;;;;4.13;3.75;;;18.90;99.90;;;;;;4991791;28;20283;-67
2021/09/13 05:25:56;;;;;;;5.40;4.30;;;19.00;99.90;;;;;;4992072;28;20224;-67
2021/09/13 05:28:23;;;;;;;4.68;3.83;;;18.90;99.90;;;;;;4991763;28;20205;-67
2021/09/13 05:30:50;;;;;;;4.40;4.00;;;18.90;99.90;;;;;;4992177;28;20267;-67
2021/09/13 05:33:18;;;;;;;4.68;4.13;;;18.90;99.90;;;;;;4992435;28;20209;-67
2021/09/13 05:35:45;;;;;;;9.20;4.47;;;18.90;99.90;;;;;;4991876;28;20213;-67
2021/09/13 05:38:12;;;;;;;5.13;3.63;;;19.00;99.90;;;;;;4992252;28;20283;-67
2021/09/13 05:40:43;;;;;;;5.22;3.90;;;19.00;99.90;;;;;;4991656;28;20255;-68
2021/09/13 05:43:10;;;;;;;10.55;4.22;;;19.00;99.90;;;;;;4992149;28;20211;-68
2021/09/13 05:45:37;;;;;;;4.97;4.03;;;19.00;99.90;;;;;;4991306;28;20275;-67
2021/09/13 05:48:06;;;;;;;10.38;4.50;;;19.20;99.90;;;;;;4991721;28;20268;-68
2021/09/13 05:50:33;;;;;;;6.88;4.32;;;19.10;99.90;;;;;;4991045;28;20209;-68
2021/09/13 05:53:00;;;;;;;6.03;4.60;;;19.20;99.90;;;;;;4991963;28;20266;-68
2021/09/13 05:55:26;;;;;;;8.18;4.38;;;19.30;99.90;;;;;;4991539;28;20270;-67
2021/09/13 05:57:55;;;;;;;6.78;4.15;;;19.30;99.90;;;;;;4991422;28;20205;-68
2021/09/13 06:00:23;;;;;;;5.65;4.10;;;19.30;99.90;;;;;;4991500;28;20213;-68
2021/09/13 06:02:50;;;;;;;6.57;3.70;;;19.40;99.90;;;;;;4991598;28;20209;-69
2021/09/13 06:05:17;;;;;;;4.05;3.65;;;19.40;99.90;;;;;;4991082;28;20237;-70
2021/09/13 06:07:44;;;;;;;4.03;3.63;;;19.50;99.90;;;;;;4990267;28;20221;-70
2021/09/13 06:10:12;;;;;;;4.35;3.83;;;19.40;99.90;;;;;;4991618;28;20272;-70
2021/09/13 06:12:39;;;;;;;7.10;4.47;;;19.40;99.90;;;;;;4990617;28;20699;-70
2021/09/13 06:15:09;;;;;;;8.38;4.28;;;19.30;99.90;;;;;;4991519;28;20275;-70
2021/09/13 06:17:36;;;;;;;5.45;3.97;;;19.20;99.90;;;;;;4991050;28;20212;-70
2021/09/13 06:20:05;;;;;;;5.70;4.40;;;19.30;99.90;;;;;;4990942;28;20205;-69
2021/09/13 06:22:32;;;;;;;7.28;4.32;;;19.40;99.90;;;;;;4990892;28;20300;-70
2021/09/13 06:24:59;;;;;;;8.95;4.32;;;19.50;99.90;;;;;;4990661;28;20680;-70
2021/09/13 06:27:26;;;;;;;6.93;4.45;;;19.50;99.90;;;;;;4990670;28;20685;-69
2021/09/13 06:29:53;;;;;;;4.85;4.43;;;19.50;99.90;;;;;;4989671;28;20669;-67
2021/09/13 06:32:22;;;;;;;5.78;5.22;;;19.40;99.90;;;;;;4990524;28;20583;-67
2021/09/13 06:34:49;;;;;;;9.75;4.72;;;19.40;99.90;;;;;;4990961;28;20251;-67
2021/09/13 06:37:19;;;;;;;5.03;4.35;;;19.40;99.90;;;;;;4991525;28;20247;-66
2021/09/13 06:39:46;;;;;;;5.68;4.50;;;19.40;99.90;;;;;;4991358;28;20209;-66
2021/09/13 06:42:14;;;;;;;6.03;5.05;;;19.50;99.90;;;;;;4990860;28;20724;-66
2021/09/13 06:44:44;;;;;;;5.10;4.70;;;19.60;99.90;;;;;;4990380;28;20233;-67
2021/09/13 06:47:22;;;;;;;6.00;5.47;;;19.70;99.90;;;;;;4990443;28;20224;-66
2021/09/13 06:49:50;;;;;;;5.47;4.55;;;19.80;99.90;;;;;;4988602;28;20619;-67
2021/09/13 06:52:17;;;;;;;5.88;5.13;;;20.00;99.90;;;;;;4985467;28;20268;-68
2021/09/13 06:54:44;;;;;;;6.53;5.57;;;20.00;99.90;;;;;;4987426;28;20216;-68
2021/09/13 06:57:11;;;;;;;5.85;5.25;;;20.20;99.90;;;;;;4988363;28;20251;-69
2021/09/13 06:59:38;;;;;;;6.57;5.80;;;20.40;99.90;;;;;;4989529;28;20625;-70
2021/09/13 07:02:08;;;;;;;5.60;5.10;;;20.50;99.90;;;;;;4988005;28;20200;-68
2021/09/13 07:04:35;;;;;;;8.13;5.75;;;20.50;99.90;;;;;;4988921;28;20630;-68
2021/09/13 07:07:04;;;;;;;6.10;5.50;;;20.60;99.90;;;;;;4990427;28;20275;-69
2021/09/13 07:09:31;;;;;;;6.65;5.50;;;20.70;99.90;;;;;;4990026;28;20256;-68
2021/09/13 07:11:58;;;;;;;5.93;5.43;;;20.70;99.90;;;;;;4989986;28;20236;-68
2021/09/13 07:14:25;;;;;;;6.22;4.85;;;20.80;99.90;;;;;;4988213;28;20259;-67
2021/09/13 07:16:52;;;;;;;6.47;5.65;;;20.90;99.90;;;;;;4990394;28;20638;-67
2021/09/13 07:19:19;;;;;;;6.80;5.93;;;20.80;99.90;;;;;;4990310;28;20279;-67
2021/09/13 07:21:47;;;;;;;6.55;5.05;;;20.90;99.90;;;;;;4989621;28;20259;-67
2021/09/13 07:24:20;;;;;;;4.80;4.40;;;21.10;99.90;;;;;;4989791;28;20655;-67
2021/09/13 07:26:47;;;;;;;9.23;5.95;;;21.30;99.90;;;;;;4989342;28;20689;-67
2021/09/13 07:29:14;;;;;;;6.22;5.07;;;21.40;99.90;;;;;;4989960;28;20208;-67
2021/09/13 07:31:41;;;;;;;7.18;5.53;;;21.50;99.90;;;;;;4987519;28;20209;-68
2021/09/13 07:34:08;;;;;;;6.20;5.60;;;21.60;99.90;;;;;;4988749;28;20660;-67
2021/09/13 07:36:35;;;;;;;5.38;4.88;;;21.70;99.90;;;;;;4989938;28;20208;-67
2021/09/13 07:39:02;;;;;;;5.68;5.13;;;21.90;99.90;;;;;;4988855;28;20259;-67
2021/09/13 07:41:31;;;;;;;8.02;5.50;;;21.70;99.90;;;;;;4987391;28;20295;-67
2021/09/13 07:43:58;;;;;;;6.78;4.95;;;21.60;99.90;;;;;;4992211;28;20227;-67
2021/09/13 07:46:25;;;;;;;7.32;5.07;;;21.70;99.90;;;;;;4993409;28;20680;-68
2021/09/13 07:48:52;;;;;;;9.57;4.18;;;22.00;99.90;;;;;;4989587;28;20259;-68
2021/09/13 07:51:19;;;;;;;4.88;4.40;;;22.10;99.90;;;;;;4993307;28;20665;-67
2021/09/13 07:53:46;;;;;;;5.20;4.20;;;22.20;99.90;;;;;;4991119;28;20700;-67
2021/09/13 07:56:13;;;;;;;6.03;4.25;;;22.20;99.90;;;;;;4991572;28;20385;-67
2021/09/13 07:58:42;;;;;;;6.70;4.25;;;22.30;99.90;;;;;;4991910;28;20696;-67
2021/09/13 08:01:09;;;;;;;5.55;3.38;;;22.30;99.90;;;;;;4992039;28;20279;-67
2021/09/13 08:03:36;;;;;;;5.25;4.07;;;22.30;99.90;;;;;;4991946;28;20737;-66
2021/09/13 08:06:03;;;;;;;4.80;3.60;;;22.30;99.90;;;;;;4990322;28;20232;-67
2021/09/13 08:08:30;;;;;;;3.95;3.53;;;22.50;99.90;;;;;;4992665;28;20216;-68
2021/09/13 08:10:57;;;;;;;4.63;3.97;;;22.80;99.90;;;;;;4989218;28;20260;-67
2021/09/13 08:13:24;;;;;;;5.00;4.55;;;22.90;99.90;;;;;;4989954;28;20723;-67
2021/09/13 08:15:52;;;;;;;5.90;4.55;;;23.00;99.90;;;;;;4990777;28;20676;-66
2021/09/13 08:18:19;;;;;;;4.28;3.88;;;23.10;99.90;;;;;;4990367;28;20263;-66
2021/09/13 08:20:46;;;;;;;3.92;3.60;;;23.10;99.90;;;;;;4991985;28;20207;-67
2021/09/13 08:23:13;;;;;;;4.25;3.47;;;23.00;99.90;;;;;;4993118;28;20204;-67
2021/09/13 08:25:40;;;;;;;4.75;3.90;;;23.00;99.90;;;;;;4992339;28;20236;-67
2021/09/13 08:28:12;;;;;;;3.67;3.38;;;23.10;99.90;;;;;;4993048;28;20259;-67
2021/09/13 08:30:41;;;;;;;4.15;3.78;;;23.40;99.90;;;;;;4991133;28;20205;-67
2021/09/13 08:33:09;;;;;;;4.88;4.40;;;23.60;99.90;;;;;;4992533;28;20209;-67
2021/09/13 08:35:36;;;;;;;4.45;4.07;;;23.70;99.90;;;;;;4992399;28;20579;-67
2021/09/13 08:38:04;;;;;;;4.55;4.13;;;23.60;99.90;;;;;;4992414;28;20201;-66
2021/09/13 08:40:31;;;;;;;3.80;3.50;;;23.60;99.90;;;;;;4990548;28;20232;-66
2021/09/13 08:42:59;;;;;;;4.45;4.15;;;23.90;99.90;;;;;;4992802;28;20221;-66
2021/09/13 08:45:31;;;;;;;5.25;4.53;;;23.90;99.90;;;;;;4991789;28;20228;-67
2021/09/13 08:48:07;;;;;;;5.90;4.15;;;23.90;99.90;;;;;;4991693;28;20773;-66
2021/09/13 08:50:39;;;;;;;4.53;4.13;;;24.00;99.90;;;;;;4991541;28;20204;-66
2021/09/13 08:53:08;;;;;;;4.57;4.20;;;24.10;99.90;;;;;;4989701;28;20201;-66
2021/09/13 08:55:35;;;;;;;6.57;4.40;;;24.40;99.90;;;;;;4990786;28;20209;-67
2021/09/13 08:58:02;;;;;;;5.32;4.88;;;24.60;99.90;;;;;;4991820;28;20232;-67
2021/09/13 09:00:31;;;;;;;6.75;4.18;;;24.60;99.90;;;;;;4992048;28;20209;-67
2021/09/13 09:02:59;;;;;;;4.10;3.80;;;24.50;99.90;;;;;;4991871;28;20296;-67
2021/09/13 09:05:27;;;;;;;4.38;3.97;;;24.30;99.90;;;;;;4988855;28;20652;-67
2021/09/13 09:07:56;;;;;;;4.22;3.83;;;24.30;99.90;;;;;;4991828;28;20217;-67
2021/09/13 09:10:26;;;;;;;4.57;3.88;;;24.20;99.90;;;;;;4991438;28;20668;-67
2021/09/13 09:13:01;;;;;;;5.35;3.83;;;24.30;99.90;;;;;;4991157;28;20296;-67
2021/09/13 09:15:29;;;;;;;4.40;3.58;;;24.80;99.90;;;;;;4990010;28;20236;-66
2021/09/13 09:17:57;;;;;;;4.30;3.53;;;25.00;99.90;;;;;;4991975;28;20220;-67
2021/09/13 09:20:25;;;;;;;4.07;3.70;;;25.30;99.90;;;;;;4991593;28;20213;-67
2021/09/13 09:23:03;;;;;;;6.28;4.32;;;25.50;99.90;;;;;;4991349;28;20217;-67
2021/09/13 09:25:33;;;;;;;3.92;3.42;;;25.60;99.90;;;;;;4986025;28;20232;-67
2021/09/13 09:28:02;;;;;;;3.50;3.30;;;25.30;99.90;;;;;;4989301;28;20208;-68
2021/09/13 09:30:35;;;;;;;3.88;3.42;;;26.40;99.90;;;;;;4987973;28;20743;-68
2021/09/13 09:33:05;;;;;;;4.70;3.65;;;26.00;99.90;;;;;;4989766;28;20209;-67
2021/09/13 09:35:45;;;;;;;3.13;2.83;;;26.10;99.90;;;;;;4989263;28;20268;-67
2021/09/13 09:38:37;;;;;;;3.03;2.75;;;26.20;99.90;;;;;;4991754;28;20209;-69
2021/09/13 09:41:07;;;;;;;3.20;2.88;;;25.90;99.90;;;;;;4991381;28;20758;-68
2021/09/13 09:43:54;;;;;;;4.18;3.80;;;26.10;99.90;;;;;;4991461;28;20308;-68
2021/09/13 09:46:22;;;;;;;4.25;3.50;;;26.00;99.90;;;;;;4980541;28;20871;-68
2021/09/13 09:48:49;;;;;;;3.63;3.33;;;25.80;99.90;;;;;;4991521;28;20680;-68
2021/09/13 09:51:27;;;;;;;4.20;3.80;;;26.10;99.90;;;;;;4991873;28;20259;-68
2021/09/13 09:53:55;;;;;;;3.75;3.45;;;26.20;99.90;;;;;;4991759;28;20625;-69
2021/09/13 09:56:25;;;;;;;4.55;4.18;;;26.40;99.90;;;;;;4991037;28;20212;-68
2021/09/13 09:59:02;;;;;;;3.97;3.67;;;26.20;99.90;;;;;;4991515;28;20216;-69
2021/09/13 10:01:39;;;;;;;4.03;3.72;;;25.90;99.90;;;;;;4988862;28;20208;-68
2021/09/13 10:04:18;;;;;;;5.80;3.95;;;26.00;99.90;;;;;;4990162;28;20730;-68
2021/09/13 10:06:48;;;;;;;4.90;3.78;;;26.40;99.90;;;;;;4988622;28;20682;-68
2021/09/13 10:09:17;;;;;;;5.22;3.75;;;26.70;99.90;;;;;;4991205;28;20263;-68
2021/09/13 10:11:45;;;;;;;3.65;3.35;;;26.80;99.90;;;;;;4990820;28;20255;-68
2021/09/13 10:14:17;;;;;;;3.72;3.42;;;26.70;99.90;;;;;;4991621;28;20212;-68
2021/09/13 10:16:46;;;;;;;3.97;3.58;;;26.20;99.90;;;;;;4990835;28;20643;-68
2021/09/13 10:19:14;;;;;;;4.13;3.67;;;26.00;99.90;;;;;;4990766;28;20247;-68
2021/09/13 10:21:41;;;;;;;3.85;3.55;;;26.50;99.90;;;;;;4990354;28;20279;-68
2021/09/13 10:24:12;;;;;;;4.38;4.03;;;26.40;99.90;;;;;;4989851;28;20264;-68
2021/09/13 10:26:42;;;;;;;4.32;3.92;;;26.70;99.90;;;;;;4986692;28;20239;-68
2021/09/13 10:29:23;;;;;;;6.40;4.32;;;26.70;99.90;;;;;;4986874;28;20741;-68
2021/09/13 10:32:11;;;;;;;3.90;3.60;;;26.50;99.90;;;;;;4990949;28;20271;-69
2021/09/13 10:34:50;;;;;;;6.35;3.95;;;26.50;99.90;;;;;;4982663;28;20216;-70
2021/09/13 10:37:18;;;;;;;4.97;3.67;;;26.80;99.90;;;;;;4990988;28;20287;-67
2021/09/13 10:39:57;;;;;;;3.53;3.22;;;27.00;99.90;;;;;;4990582;28;20212;-68
2021/09/13 10:42:51;;;;;;;6.10;5.43;;;27.30;99.90;;;;;;4990328;28;20209;-68
2021/09/13 10:45:22;;;;;;;5.22;4.55;;;27.20;99.90;;;;;;4990053;28;20244;-67
2021/09/13 10:47:50;;;;;;;7.40;4.25;;;27.20;99.90;;;;;;4990964;28;20209;-67
2021/09/13 10:50:24;;;;;;;4.35;4.05;;;27.30;99.90;;;;;;4991565;28;20259;-67
2021/09/13 10:52:52;;;;;;;4.93;4.53;;;27.40;99.90;;;;;;4988979;28;20750;-67
2021/09/13 10:55:27;;;;;;;20.95;12.75;;;27.80;99.90;;;;;;4990269;28;20739;-68
2021/09/13 10:58:11;;;;;;;4.78;4.38;;;27.90;99.90;;;;;;4990078;28;20209;-68
2021/09/13 11:01:00;;;;;;;4.95;4.50;;;27.50;99.90;;;;;;4989889;28;20247;-68
2021/09/13 11:03:32;;;;;;;6.03;4.55;;;27.40;99.90;;;;;;4987678;28;20688;-68
2021/09/13 11:06:04;;;;;;;4.45;4.05;;;27.00;99.90;;;;;;4991028;28;20236;-67
2021/09/13 11:08:32;;;;;;;4.65;3.70;;;26.80;99.90;;;;;;4989958;28;20299;-68
2021/09/13 11:10:59;;;;;;;6.05;3.97;;;26.90;99.90;;;;;;4991039;28;20220;-67
2021/09/13 11:13:27;;;;;;;5.13;4.32;;;26.90;99.90;;;;;;4990562;28;20200;-67
2021/09/13 11:15:54;;;;;;;4.65;3.95;;;26.90;99.90;;;;;;4990381;28;20684;-68
2021/09/13 11:18:32;;;;;;;4.57;3.70;;;27.00;99.90;;;;;;4994230;28;20209;-68
2021/09/13 11:21:14;;;;;;;4.47;4.10;;;26.90;99.90;;;;;;4994655;28;20266;-68
2021/09/13 11:23:41;;;;;;;5.78;4.07;;;26.80;99.90;;;;;;4989959;28;20635;-67
2021/09/13 11:26:11;;;;;;;5.63;5.13;;;27.10;99.90;;;;;;4994160;28;20233;-67
2021/09/13 11:28:57;;;;;;;4.47;4.07;;;27.50;99.90;;;;;;4991345;28;20627;-68
2021/09/13 11:31:34;;;;;;;5.43;4.00;;;28.00;99.90;;;;;;4992942;28;20267;-67
2021/09/13 11:34:02;;;;;;;4.30;3.90;;;28.30;99.90;;;;;;4993615;28;20292;-68
2021/09/13 11:36:31;;;;;;;3.78;3.45;;;28.60;99.90;;;;;;4991914;28;20204;-68
2021/09/13 11:39:00;;;;;;;4.45;3.40;;;28.40;99.90;;;;;;4993693;28;20288;-67
2021/09/13 11:41:28;;;;;;;6.20;4.22;;;28.40;99.90;;;;;;4993893;28;20212;-68
2021/09/13 11:44:06;;;;;;;5.28;4.75;;;28.40;99.90;;;;;;4994074;28;20729;-68
2021/09/13 11:46:51;;;;;;;8.02;4.35;;;28.40;99.90;;;;;;4992464;28;20240;-68
2021/09/13 11:49:23;;;;;;;4.68;3.95;;;28.20;99.90;;;;;;4992136;28;20240;-67
2021/09/13 11:52:12;;;;;;;4.15;3.47;;;28.60;99.90;;;;;;4993581;28;20545;-67
2021/09/13 11:54:44;;;;;;;3.70;3.40;;;28.90;99.90;;;;;;4991711;28;20197;-68
2021/09/13 11:57:29;;;;;;;6.05;4.68;;;28.60;99.90;;;;;;4993856;28;20208;-67
2021/09/13 11:59:59;;;;;;;4.80;4.40;;;28.40;99.90;;;;;;4991325;28;20676;-67
2021/09/13 12:02:30;;;;;;;6.20;4.10;;;28.70;99.90;;;;;;4990887;28;20201;-68
2021/09/13 12:04:59;;;;;;;4.00;3.70;;;28.70;99.90;;;;;;4990221;28;20209;-67
2021/09/13 12:07:26;;;;;;;4.32;3.92;;;29.10;99.90;;;;;;4991579;28;20327;-67
2021/09/13 12:09:54;;;;;;;4.15;3.85;;;28.80;99.90;;;;;;4992324;28;20222;-68
2021/09/13 12:12:23;;;;;;;4.97;4.07;;;28.40;99.90;;;;;;4992047;28;20209;-67
2021/09/13 12:14:53;;;;;;;5.20;4.70;;;28.60;99.90;;;;;;4993135;28;20205;-68
2021/09/13 12:17:23;;;;;;;4.28;3.88;;;28.80;99.90;;;;;;4993277;28;20267;-68
2021/09/13 12:20:10;;;;;;;4.68;4.28;;;28.50;99.90;;;;;;4992536;28;20209;-68
2021/09/13 12:22:37;;;;;;;4.82;4.45;;;28.50;99.90;;;;;;4992712;28;20562;-68
2021/09/13 12:25:10;;;;;;;4.95;4.55;;;28.50;99.90;;;;;;4993311;28;20208;-68
2021/09/13 12:27:41;;;;;;;5.18;4.78;;;28.40;99.90;;;;;;4990159;28;20283;-67
2021/09/13 12:30:13;;;;;;;4.50;4.10;;;28.30;99.90;;;;;;4991499;28;20201;-67
2021/09/13 12:32:54;;;;;;;4.82;4.32;;;28.70;99.90;;;;;;4990918;28;20627;-68
2021/09/13 12:35:40;;;;;;;4.90;4.53;;;28.60;99.90;;;;;;4990564;28;20197;-68
2021/09/13 12:38:10;;;;;;;5.05;4.55;;;28.50;99.90;;;;;;4991907;28;20264;-67
2021/09/13 12:40:57;;;;;;;9.07;4.32;;;28.50;99.90;;;;;;4987756;28;20208;-68
2021/09/13 12:43:26;;;;;;;6.85;4.53;;;28.70;99.90;;;;;;4986115;28;20211;-67
2021/09/13 12:46:08;;;;;;;10.05;5.85;;;28.90;99.90;;;;;;4989874;28;20232;-68
2021/09/13 12:48:39;;;;;;;7.00;5.18;;;28.60;99.90;;;;;;4989340;28;20743;-68
2021/09/13 12:51:11;;;;;;;9.90;5.00;;;28.70;99.90;;;;;;4992397;28;20340;-68
2021/09/13 12:53:39;;;;;;;8.57;5.78;;;28.40;99.90;;;;;;4990585;28;20197;-69
2021/09/13 12:56:16;;;;;;;4.70;4.30;;;28.10;99.90;;;;;;4992058;28;20209;-69